Time;durP1;ratioP1;P1;durP2;ratioP2;P2;SDS_P1;SDS_P2;PMS_P1;PMS_P2;Temp;Humidity;BMP_temperature;BMP_pressure;BME280_temperature;BME280_humidity;BME280_pressure;Samples;Min_cycle;Max_cycle;Signal;HPM_P1;HPM_P2
2021/08/07 00:02:24;;;;;;;6.72;3.10;;;;;;;16.96;75.67;98881.19;4936100;29;20426;-61
2021/08/07 00:05:09;;;;;;;9.93;4.18;;;;;;;16.97;75.74;98875.06;4936846;29;20046;-61
2021/08/07 00:07:53;;;;;;;7.03;3.03;;;;;;;16.96;75.75;98871.56;4921860;29;20570;-61
2021/08/07 00:10:37;;;;;;;9.95;3.17;;;;;;;16.96;75.82;98870.72;4921971;29;20107;-61
2021/08/07 00:13:21;;;;;;;5.93;3.50;;;;;;;16.94;75.68;98865.50;4936704;29;20059;-61
2021/08/07 00:16:06;;;;;;;7.38;2.80;;;;;;;16.95;75.55;98863.78;4936039;29;20042;-61
2021/08/07 00:18:50;;;;;;;6.97;3.03;;;;;;;16.95;75.72;98861.16;4935807;29;20522;-61
2021/08/07 00:21:37;;;;;;;10.05;3.58;;;;;;;16.93;75.86;98855.94;4936101;29;20046;-61
2021/08/07 00:24:21;;;;;;;6.32;3.03;;;;;;;16.93;75.72;98853.31;4936174;29;20059;-61
2021/08/07 00:27:04;;;;;;;5.38;2.88;;;;;;;16.93;75.75;98849.84;4936255;29;20119;-61
2021/08/07 00:29:48;;;;;;;7.90;2.67;;;;;;;16.92;75.57;98854.22;4936566;29;20080;-61
2021/08/07 00:32:38;;;;;;;4.55;3.50;;;;;;;16.89;75.69;98855.16;4936354;29;20429;-61
2021/08/07 00:35:25;;;;;;;4.57;2.63;;;;;;;16.89;75.76;98852.56;4921662;29;20051;-61
2021/08/07 00:38:09;;;;;;;8.35;3.17;;;;;;;16.89;75.63;98849.09;4936453;29;20054;-61
2021/08/07 00:40:53;;;;;;;4.30;2.35;;;;;;;16.89;75.66;98854.31;4921924;29;20185;-61
2021/08/07 00:43:37;;;;;;;4.63;2.92;;;;;;;16.89;75.65;98857.78;4936195;29;20055;-61
2021/08/07 00:46:22;;;;;;;12.07;2.83;;;;;;;16.86;75.67;98851.78;4935978;29;20090;-61
2021/08/07 00:49:05;;;;;;;4.53;2.75;;;;;;;16.86;75.65;98852.63;4936318;29;20533;-61
2021/08/07 00:51:50;;;;;;;4.55;2.55;;;;;;;16.84;75.82;98843.13;4921801;29;20117;-61
2021/08/07 00:54:34;;;;;;;5.90;2.95;;;;;;;16.86;75.60;98857.03;4921520;29;20058;-61
2021/08/07 00:57:24;;;;;;;7.38;3.03;;;;;;;16.84;75.88;98845.75;4935571;29;20427;-61
2021/08/07 01:00:14;;;;;;;5.22;2.28;;;;;;;16.84;75.88;98845.75;4934796;29;20415;-61
2021/08/07 01:03:16;;;;;;;6.15;2.20;;;;;;;16.84;75.59;98832.66;4921397;29;20149;-61
2021/08/07 01:06:33;;;;;;;6.30;2.92;;;;;;;16.83;75.66;98830.94;4921826;29;20097;-61
2021/08/07 01:09:45;;;;;;;5.25;3.00;;;;;;;16.82;75.61;98827.44;4935865;29;20050;-61
2021/08/07 01:12:55;;;;;;;8.77;3.33;;;;;;;16.82;75.85;98830.06;4921450;29;20506;-61
2021/08/07 01:15:43;;;;;;;7.32;3.25;;;;;;;16.81;75.66;98822.28;4924651;29;20069;-61
2021/08/07 01:18:38;;;;;;;5.80;3.50;;;;;;;16.81;75.74;98825.75;4925347;29;20058;-61
2021/08/07 01:21:32;;;;;;;9.15;3.05;;;;;;;16.81;75.72;98819.66;4939593;29;20529;-62
2021/08/07 01:24:36;;;;;;;8.25;3.38;;;;;;;16.80;75.71;98813.59;4939165;29;20050;-61
2021/08/07 01:27:29;;;;;;;7.67;3.10;;;;;;;16.80;75.74;98815.31;4925202;29;20515;-61
2021/08/07 01:30:21;;;;;;;9.10;3.40;;;;;;;16.79;75.72;98827.56;4924727;29;20290;-61
2021/08/07 01:33:17;;;;;;;7.45;2.70;;;;;;;16.79;75.71;98829.31;4938969;29;20098;-63
2021/08/07 01:36:07;;;;;;;10.57;3.33;;;;;;;16.79;75.69;98827.56;4924611;29;20069;-62
2021/08/07 01:38:54;;;;;;;9.75;2.92;;;;;;;16.78;75.65;98833.69;4938550;29;20130;-63
2021/08/07 01:41:49;;;;;;;3.25;2.25;;;;;;;16.77;75.60;98823.25;4924334;29;20047;-61
2021/08/07 01:44:41;;;;;;;5.22;2.50;;;;;;;16.77;75.66;98811.06;4938733;29;20579;-63
2021/08/07 01:47:37;;;;;;;13.40;2.67;;;;;;;16.78;75.61;98822.34;4924192;29;20122;-63
2021/08/07 01:50:35;;;;;;;9.20;2.72;;;;;;;16.75;75.73;98808.47;4938750;29;20511;-62
2021/08/07 01:53:31;;;;;;;9.45;2.75;;;;;;;16.77;75.81;98807.56;4924740;29;20059;-61
2021/08/07 01:56:43;;;;;;;6.30;2.10;;;;;;;16.75;75.77;98800.59;4938338;29;20467;-61
2021/08/07 01:59:39;;;;;;;6.30;2.15;;;;;;;16.75;75.89;98800.59;4924174;29;20050;-61
2021/08/07 02:02:38;;;;;;;9.77;2.55;;;;;;;16.76;75.77;98811.94;4924500;29;20467;-61
2021/08/07 02:05:38;;;;;;;3.28;1.95;;;;;;;16.75;75.66;98805.00;4924136;29;20054;-61
2021/08/07 02:08:33;;;;;;;4.85;2.38;;;;;;;16.74;75.85;98801.50;4937584;29;20464;-61
2021/08/07 02:11:20;;;;;;;10.18;2.75;;;;;;;16.75;75.57;98802.38;4924424;29;20046;-61
2021/08/07 02:14:05;;;;;;;11.35;2.58;;;;;;;16.74;75.55;98796.28;4939114;29;20066;-61
2021/08/07 02:16:59;;;;;;;9.25;2.78;;;;;;;16.74;75.80;98805.91;4938712;29;20427;-61
2021/08/07 02:19:52;;;;;;;8.35;2.25;;;;;;;16.74;75.61;98795.44;4938673;29;20111;-61
2021/08/07 02:22:51;;;;;;;5.60;1.88;;;;;;;16.74;75.61;98796.28;4938189;29;20046;-61
2021/08/07 02:25:50;;;;;;;8.55;2.58;;;;;;;16.73;75.84;98789.38;4923168;29;20491;-61
2021/08/07 02:28:49;;;;;;;5.47;2.53;;;;;;;16.72;75.86;98790.25;4924177;29;20531;-61
2021/08/07 02:31:45;;;;;;;11.70;2.05;;;;;;;16.72;75.78;98789.38;4924197;29;20054;-61
2021/08/07 02:34:34;;;;;;;4.88;2.25;;;;;;;16.72;75.57;98776.31;4937917;29;20051;-62
2021/08/07 02:37:18;;;;;;;5.20;2.03;;;;;;;16.72;75.70;98779.81;4923865;29;20038;-61
2021/08/07 02:40:15;;;;;;;6.60;1.92;;;;;;;16.70;75.67;98776.38;4923813;29;20634;-61
2021/08/07 02:43:14;;;;;;;6.03;1.90;;;;;;;16.70;75.68;98765.91;4937773;29;20074;-61
2021/08/07 02:46:09;;;;;;;2.90;1.95;;;;;;;16.70;75.78;98763.28;4923219;29;20061;-61
2021/08/07 02:49:07;;;;;;;6.15;2.15;;;;;;;16.69;75.75;98756.34;4938132;29;20412;-63
2021/08/07 02:52:03;;;;;;;4.10;1.92;;;;;;;16.69;75.71;98768.53;4923701;29;20661;-61
2021/08/07 02:54:58;;;;;;;5.45;2.28;;;;;;;16.68;75.49;98764.22;4923604;29;20132;-61
2021/08/07 02:57:53;;;;;;;5.65;2.30;;;;;;;16.68;75.33;98764.22;4938027;29;20055;-61
2021/08/07 03:00:38;;;;;;;6.43;2.25;;;;;;;16.66;75.24;98763.44;4922648;29;20066;-61
2021/08/07 03:03:23;;;;;;;6.72;2.25;;;;;;;16.66;75.59;98764.28;4937368;29;20138;-61
2021/08/07 03:06:17;;;;;;;5.63;2.35;;;;;;;16.65;75.56;98759.94;4937112;29;20071;-61
2021/08/07 03:09:15;;;;;;;3.00;2.08;;;;;;;16.63;75.62;98753.91;4937324;29;20055;-63
2021/08/07 03:12:12;;;;;;;6.60;2.17;;;;;;;16.64;75.52;98749.53;4937078;29;20579;-63
2021/08/07 03:15:09;;;;;;;5.45;2.20;;;;;;;16.63;75.92;98753.91;4923091;29;20054;-63
2021/08/07 03:18:06;;;;;;;3.55;1.83;;;;;;;16.63;75.44;98753.91;4936856;29;20051;-62
2021/08/07 03:20:59;;;;;;;5.50;2.47;;;;;;;16.62;75.73;98746.94;4922699;29;20418;-63
2021/08/07 03:23:48;;;;;;;4.88;1.70;;;;;;;16.62;75.64;98748.72;4937199;29;20054;-62
2021/08/07 03:26:32;;;;;;;4.80;2.35;;;;;;;16.61;75.52;98753.06;4922634;29;20054;-62
2021/08/07 03:29:30;;;;;;;5.38;2.22;;;;;;;16.60;75.65;98751.34;4937199;29;20054;-62
2021/08/07 03:32:28;;;;;;;5.10;1.70;;;;;;;16.61;75.54;98760.09;4922926;29;20111;-62
2021/08/07 03:35:25;;;;;;;6.78;1.98;;;;;;;16.59;75.63;98747.03;4936513;29;20423;-63
2021/08/07 03:38:18;;;;;;;5.55;1.80;;;;;;;16.59;75.64;98752.25;4936041;29;20063;-63
2021/08/07 03:41:16;;;;;;;7.35;2.22;;;;;;;16.58;75.60;98748.81;4922662;29;20046;-62
2021/08/07 03:44:16;;;;;;;5.65;1.98;;;;;;;16.58;75.46;98750.56;4922692;29;20054;-63
2021/08/07 03:47:03;;;;;;;4.22;2.05;;;;;;;16.57;75.49;98749.69;4922756;29;20157;-63
2021/08/07 03:49:48;;;;;;;6.10;2.35;;;;;;;16.58;75.48;98751.41;4936919;29;20510;-62
2021/08/07 03:52:34;;;;;;;2.47;1.90;;;;;;;16.57;75.63;98747.09;4922145;29;20479;-62
2021/08/07 03:55:31;;;;;;;7.70;2.20;;;;;;;16.57;75.59;98735.78;4936666;29;20051;-63
2021/08/07 03:58:29;;;;;;;5.68;2.45;;;;;;;16.58;75.88;98740.13;4935923;29;20063;-63
2021/08/07 04:01:18;;;;;;;7.38;2.10;;;;;;;16.55;75.48;98738.44;4921839;29;20091;-63
2021/08/07 04:04:13;;;;;;;13.73;2.25;;;;;;;16.56;75.50;98741.91;4922508;29;20563;-63
2021/08/07 04:07:08;;;;;;;3.08;1.83;;;;;;;16.56;75.52;98747.16;4936590;29;20058;-63
2021/08/07 04:09:55;;;;;;;4.20;2.22;;;;;;;16.56;75.69;98744.53;4936669;29;20133;-63
2021/08/07 04:12:56;;;;;;;4.32;2.28;;;;;;;16.55;75.57;98734.97;4922073;29;20054;-62
2021/08/07 04:15:43;;;;;;;8.25;2.42;;;;;;;16.53;75.50;98734.16;4935966;29;20071;-62
2021/08/07 04:18:26;;;;;;;5.55;2.13;;;;;;;16.53;75.56;98731.53;4936166;29;20086;-63
2021/08/07 04:21:10;;;;;;;6.55;2.10;;;;;;;16.53;75.48;98731.53;4922045;29;20051;-61
2021/08/07 04:24:08;;;;;;;10.13;2.47;;;;;;;16.51;75.57;98734.19;4936420;29;20542;-61
2021/08/07 04:27:06;;;;;;;5.30;2.10;;;;;;;16.51;75.56;98730.72;4936431;29;20415;-61
2021/08/07 04:30:03;;;;;;;5.53;2.13;;;;;;;16.52;75.40;98730.66;4936333;29;20047;-61
2021/08/07 04:32:59;;;;;;;6.93;2.70;;;;;;;16.50;75.44;98735.09;4936015;29;20059;-61
2021/08/07 04:35:56;;;;;;;6.93;2.08;;;;;;;16.50;75.46;98735.09;4936313;29;20517;-61
2021/08/07 04:38:54;;;;;;;9.40;2.75;;;;;;;16.50;75.29;98736.84;4921287;29;20047;-62
2021/08/07 04:41:40;;;;;;;9.18;2.10;;;;;;;16.51;75.50;98739.41;4935981;29;20054;-62
2021/08/07 04:44:24;;;;;;;3.25;2.10;;;;;;;16.50;75.80;98731.63;4936369;29;20134;-63
2021/08/07 04:47:21;;;;;;;6.32;2.30;;;;;;;16.51;75.46;98733.34;4936355;29;20086;-61
2021/08/07 04:50:19;;;;;;;5.22;2.30;;;;;;;16.50;75.58;98729.88;4924721;29;20066;-62
2021/08/07 04:53:17;;;;;;;8.57;2.28;;;;;;;16.51;75.54;98733.34;4939769;29;20504;-63
2021/08/07 04:56:12;;;;;;;4.72;2.33;;;;;;;16.51;75.48;98733.34;4939769;29;20043;-62
2021/08/07 04:59:10;;;;;;;8.88;2.15;;;;;;;16.50;75.48;98729.00;4939481;29;20054;-62
2021/08/07 05:02:08;;;;;;;7.75;2.20;;;;;;;16.49;75.62;98720.31;4939330;29;20522;-63
2021/08/07 05:04:52;;;;;;;9.10;3.05;;;;;;;16.47;75.58;98729.97;4940054;29;20464;-62
2021/08/07 05:07:36;;;;;;;8.73;2.50;;;;;;;16.49;75.81;98724.69;4939771;29;20106;-62
2021/08/07 05:10:20;;;;;;;6.57;2.15;;;;;;;16.50;75.80;98721.16;4939653;29;20471;-62
2021/08/07 05:13:18;;;;;;;8.63;2.22;;;;;;;16.48;75.54;98721.22;4939551;29;20111;-62
2021/08/07 05:16:13;;;;;;;5.40;2.20;;;;;;;16.48;75.67;98709.88;4939482;29;20148;-61
2021/08/07 05:19:12;;;;;;;6.43;2.40;;;;;;;16.49;75.60;98717.72;4939345;29;20051;-61
2021/08/07 05:22:07;;;;;;;7.10;2.42;;;;;;;16.49;75.56;98708.97;4938420;29;20649;-61
2021/08/07 05:25:04;;;;;;;6.57;2.35;;;;;;;16.48;75.52;98709.88;4939595;29;20050;-61
2021/08/07 05:27:59;;;;;;;6.47;2.50;;;;;;;16.48;75.52;98705.53;4925227;29;20165;-61
2021/08/07 05:30:49;;;;;;;10.43;3.00;;;;;;;16.49;75.49;98703.75;4924917;29;20054;-61
2021/08/07 05:33:33;;;;;;;6.32;2.67;;;;;;;16.48;75.50;98704.66;4924999;29;20179;-61
2021/08/07 05:36:17;;;;;;;5.20;2.15;;;;;;;16.48;75.54;98712.50;4924215;29;20110;-61
2021/08/07 05:39:15;;;;;;;6.35;2.38;;;;;;;16.48;75.51;98713.38;4938070;29;20051;-61
2021/08/07 05:42:13;;;;;;;5.07;2.10;;;;;;;16.47;75.56;98709.03;4924945;29;20038;-62
2021/08/07 05:45:09;;;;;;;6.75;2.30;;;;;;;16.47;75.54;98722.13;4924639;29;20103;-62
2021/08/07 05:48:06;;;;;;;7.95;2.38;;;;;;;16.48;75.65;98708.16;4938529;29;20051;-62
2021/08/07 05:51:07;;;;;;;7.53;2.10;;;;;;;16.49;75.39;98708.97;4938456;29;20427;-62
2021/08/07 05:54:06;;;;;;;9.68;2.50;;;;;;;16.48;75.56;98708.16;4938453;29;20050;-62
2021/08/07 05:56:50;;;;;;;10.35;2.40;;;;;;;16.49;75.69;98703.75;4938873;29;20046;-62
2021/08/07 05:59:34;;;;;;;5.68;2.30;;;;;;;16.48;75.58;98700.31;4924246;29;20058;-62
2021/08/07 06:02:32;;;;;;;6.40;2.28;;;;;;;16.48;75.76;98696.81;4937581;29;20078;-63
2021/08/07 06:05:29;;;;;;;5.40;2.00;;;;;;;16.50;75.62;98705.47;4938754;29;20046;-62
2021/08/07 06:08:29;;;;;;;6.10;2.67;;;;;;;16.49;75.54;98706.38;4924065;29;20415;-62
2021/08/07 06:11:24;;;;;;;5.85;2.42;;;;;;;16.49;75.68;98698.53;4938286;29;20059;-62
2021/08/07 06:14:19;;;;;;;5.18;2.35;;;;;;;16.50;75.65;98705.47;4924190;29;20537;-63
2021/08/07 06:17:14;;;;;;;8.43;2.92;;;;;;;16.50;75.58;98697.63;4938441;29;20134;-63
2021/08/07 06:19:59;;;;;;;4.15;2.50;;;;;;;16.49;75.60;98695.91;4923954;29;20047;-63
2021/08/07 06:22:42;;;;;;;4.18;2.35;;;;;;;16.50;75.79;98703.72;4938064;29;20484;-62
2021/08/07 06:25:26;;;;;;;7.35;3.15;;;;;;;16.50;75.75;98706.34;4938102;29;20050;-62
2021/08/07 06:28:11;;;;;;;7.20;3.10;;;;;;;16.52;75.63;98698.44;4938470;29;20455;-63
2021/08/07 06:30:55;;;;;;;6.60;2.38;;;;;;;16.52;75.55;98698.44;4923740;29;20051;-62
2021/08/07 06:33:53;;;;;;;3.38;2.30;;;;;;;16.52;75.70;98703.66;4923486;29;20475;-62
2021/08/07 06:36:51;;;;;;;7.63;2.17;;;;;;;16.52;75.72;98708.91;4937779;29;20046;-62
2021/08/07 06:39:46;;;;;;;5.45;2.33;;;;;;;16.51;75.79;98699.34;4923319;29;20131;-63
2021/08/07 06:42:44;;;;;;;5.70;2.50;;;;;;;16.52;75.70;98707.13;4923439;29;20123;-63
2021/08/07 06:45:43;;;;;;;5.18;2.28;;;;;;;16.53;75.73;98705.38;4923576;29;20074;-62
2021/08/07 06:48:38;;;;;;;7.47;2.70;;;;;;;16.53;75.78;98705.38;4937651;29;20534;-62
2021/08/07 06:51:27;;;;;;;6.40;2.28;;;;;;;16.53;75.63;98705.38;4938393;29;20086;-62
2021/08/07 06:54:11;;;;;;;6.78;2.58;;;;;;;16.53;75.64;98700.16;4923084;29;20078;-61
2021/08/07 06:57:07;;;;;;;5.05;2.70;;;;;;;16.54;75.76;98699.25;4924098;29;20043;-61
2021/08/07 07:00:04;;;;;;;14.27;3.17;;;;;;;16.54;75.69;98704.47;4937493;29;20051;-61
2021/08/07 07:03:00;;;;;;;8.20;2.58;;;;;;;16.54;75.71;98709.72;4917587;29;20188;-61
2021/08/07 07:05:58;;;;;;;4.88;2.70;;;;;;;16.54;75.82;98713.16;4917761;29;20050;-61
2021/08/07 07:08:56;;;;;;;7.93;2.70;;;;;;;16.55;75.63;98707.03;4918847;29;20510;-61
2021/08/07 07:11:51;;;;;;;8.40;2.83;;;;;;;16.56;76.07;98707.91;4917732;29;20078;-62
2021/08/07 07:14:38;;;;;;;9.77;2.50;;;;;;;16.57;75.87;98700.00;4918408;29;20055;-61
2021/08/07 07:17:24;;;;;;;7.15;3.10;;;;;;;16.59;75.73;98707.81;4917004;29;20071;-62
2021/08/07 07:20:20;;;;;;;12.30;2.72;;;;;;;16.58;75.88;98701.72;4918492;29;20047;-61
2021/08/07 07:23:13;;;;;;;5.45;2.72;;;;;;;16.59;76.01;98699.94;4918477;29;20047;-62
2021/08/07 07:26:08;;;;;;;8.35;3.00;;;;;;;16.59;75.81;98707.81;4918166;29;20063;-61
2021/08/07 07:29:07;;;;;;;8.90;2.58;;;;;;;16.58;75.89;98709.56;4918245;29;20099;-61
2021/08/07 07:32:02;;;;;;;7.30;2.67;;;;;;;16.58;75.94;98704.34;4917954;29;20048;-63
2021/08/07 07:35:00;;;;;;;6.47;2.30;;;;;;;16.58;75.90;98706.13;4917962;29;20051;-63
2021/08/07 07:37:47;;;;;;;4.10;2.60;;;;;;;16.58;75.92;98700.88;4918311;29;20393;-61
2021/08/07 07:40:31;;;;;;;5.00;2.60;;;;;;;16.59;75.93;98697.34;4917488;29;20051;-61
2021/08/07 07:43:25;;;;;;;6.38;2.45;;;;;;;16.59;75.86;98695.59;4917302;29;20079;-61
2021/08/07 07:46:23;;;;;;;8.68;2.83;;;;;;;16.57;76.00;98686.09;4916853;29;20067;-61
2021/08/07 07:49:21;;;;;;;10.00;2.92;;;;;;;16.58;75.78;98688.66;4917314;29;20092;-61
2021/08/07 07:52:20;;;;;;;9.50;2.80;;;;;;;16.57;75.74;98686.09;4917716;29;20088;-61
2021/08/07 07:55:18;;;;;;;9.90;3.00;;;;;;;16.58;75.92;98682.56;4917178;29;20523;-61
2021/08/07 07:58:10;;;;;;;6.13;3.20;;;;;;;16.59;75.87;98686.88;4917662;29;20086;-61
2021/08/07 08:00:54;;;;;;;5.82;2.60;;;;;;;16.58;75.86;98687.81;4916743;29;20127;-61
2021/08/07 08:03:47;;;;;;;6.28;2.78;;;;;;;16.58;75.82;98683.41;4917361;29;20070;-61
2021/08/07 08:06:42;;;;;;;6.95;2.70;;;;;;;16.59;75.94;98692.97;4916719;29;20107;-61
2021/08/07 08:09:40;;;;;;;6.18;2.67;;;;;;;16.59;76.07;98687.75;4917447;29;20126;-61
2021/08/07 08:12:38;;;;;;;9.27;2.40;;;;;;;16.60;75.91;98675.50;4916529;29;20416;-61
2021/08/07 08:15:31;;;;;;;6.72;2.88;;;;;;;16.62;76.07;98672.88;4917501;29;20556;-61
2021/08/07 08:18:29;;;;;;;9.07;3.03;;;;;;;16.63;76.06;98680.66;4916706;29;20062;-62
2021/08/07 08:21:21;;;;;;;8.48;2.60;;;;;;;16.63;75.95;98678.03;4916683;29;20579;-61
2021/08/07 08:24:05;;;;;;;7.88;2.20;;;;;;;16.64;75.86;98665.84;4916496;29;20112;-61
2021/08/07 08:26:49;;;;;;;6.32;2.60;;;;;;;16.64;75.85;98679.75;4917124;29;20059;-61
2021/08/07 08:29:33;;;;;;;11.05;2.67;;;;;;;16.65;75.98;98668.41;4917039;29;20055;-61
2021/08/07 08:32:17;;;;;;;9.48;3.22;;;;;;;16.66;75.82;98671.88;4916918;29;20431;-61
2021/08/07 08:35:09;;;;;;;6.43;2.30;;;;;;;16.68;76.00;98665.69;4916753;29;20082;-63
2021/08/07 08:38:05;;;;;;;7.57;2.58;;;;;;;16.69;75.98;98662.19;4916250;29;20163;-62
2021/08/07 08:41:06;;;;;;;7.13;2.95;;;;;;;16.71;76.28;98667.34;4917315;29;20059;-61
2021/08/07 08:44:04;;;;;;;3.65;2.05;;;;;;;16.73;75.93;98668.16;4917087;29;20083;-62
2021/08/07 08:46:57;;;;;;;8.90;2.88;;;;;;;16.73;75.91;98653.34;4917138;29;20075;-61
2021/08/07 08:49:44;;;;;;;7.35;2.53;;;;;;;16.77;75.91;98663.69;4916390;29;20555;-61
2021/08/07 08:52:44;;;;;;;7.85;2.80;;;;;;;16.78;75.83;98658.41;4916165;29;20107;-61
2021/08/07 08:55:34;;;;;;;3.60;2.55;;;;;;;16.80;75.86;98672.31;4915894;29;20040;-63
2021/08/07 08:58:27;;;;;;;11.93;2.75;;;;;;;16.81;75.90;98652.22;4916584;29;20067;-63
2021/08/07 09:01:16;;;;;;;7.07;2.50;;;;;;;16.81;75.66;98662.69;4916323;29;20127;-63
2021/08/07 09:04:14;;;;;;;5.20;2.30;;;;;;;16.84;75.71;98660.81;4936049;29;20106;-61
2021/08/07 09:07:17;;;;;;;8.27;3.15;;;;;;;16.84;75.65;98662.59;4921727;29;20070;-61
2021/08/07 09:10:04;;;;;;;8.10;2.80;;;;;;;16.86;75.56;98672.09;4921746;29;20051;-61
2021/08/07 09:12:55;;;;;;;5.32;2.60;;;;;;;16.89;75.62;98665.94;4921781;29;20055;-61
2021/08/07 09:15:43;;;;;;;7.97;2.63;;;;;;;16.90;75.50;98655.41;4935730;29;20580;-61
2021/08/07 09:18:27;;;;;;;8.80;2.80;;;;;;;16.95;75.69;98655.28;4921715;29;20070;-61
2021/08/07 09:21:17;;;;;;;8.05;2.33;;;;;;;16.98;75.54;98668.28;4921995;29;20046;-62
2021/08/07 09:24:10;;;;;;;7.78;2.53;;;;;;;16.98;75.26;98660.41;4921643;29;20419;-61
2021/08/07 09:27:04;;;;;;;6.97;2.25;;;;;;;16.98;75.28;98652.56;4921190;29;20051;-61
2021/08/07 09:29:57;;;;;;;9.32;2.53;;;;;;;17.01;75.27;98651.59;4921111;29;20051;-61
2021/08/07 09:32:56;;;;;;;5.50;2.28;;;;;;;17.03;75.17;98653.28;4921447;29;20408;-61
2021/08/07 09:35:46;;;;;;;8.23;2.40;;;;;;;17.04;75.23;98654.13;4922773;29;20091;-62
2021/08/07 09:38:34;;;;;;;8.13;2.47;;;;;;;17.05;75.00;98656.69;4924682;29;20042;-63
2021/08/07 09:41:24;;;;;;;8.63;1.95;;;;;;;17.06;74.82;98654.94;4924535;29;20079;-63
2021/08/07 09:44:28;;;;;;;9.98;2.75;;;;;;;17.07;75.02;98664.50;4924830;29;20084;-61
2021/08/07 09:47:15;;;;;;;6.18;2.25;;;;;;;17.06;74.89;98657.56;4924691;29;20055;-63
2021/08/07 09:50:01;;;;;;;5.32;2.00;;;;;;;17.07;74.92;98663.63;4924848;29;20098;-61
2021/08/07 09:52:45;;;;;;;5.75;2.20;;;;;;;17.07;74.92;98656.66;4924783;29;20070;-61
2021/08/07 09:55:39;;;;;;;10.15;2.40;;;;;;;17.08;74.77;98660.09;4924436;29;20050;-61
2021/08/07 09:58:32;;;;;;;4.13;1.67;;;;;;;17.07;74.79;98661.00;4939179;29;20071;-61
2021/08/07 10:01:29;;;;;;;6.32;2.22;;;;;;;17.08;74.78;98652.25;4938457;29;20160;-61
2021/08/07 10:04:24;;;;;;;5.32;2.40;;;;;;;17.10;74.65;98647.81;4924388;29;20066;-61
2021/08/07 10:07:14;;;;;;;6.00;2.20;;;;;;;17.11;75.05;98644.31;4923999;29;20054;-62
2021/08/07 10:10:21;;;;;;;6.38;2.00;;;;;;;17.11;74.74;98654.78;4924193;29;20051;-62
2021/08/07 10:13:09;;;;;;;5.90;1.83;;;;;;;17.10;74.55;98638.22;4938814;29;20058;-61
2021/08/07 10:16:04;;;;;;;5.25;1.85;;;;;;;17.10;74.48;98637.34;4924053;29;20043;-62
2021/08/07 10:19:00;;;;;;;5.88;2.33;;;;;;;17.10;74.48;98621.66;4938397;29;20069;-61
2021/08/07 10:21:56;;;;;;;5.60;2.10;;;;;;;17.09;74.75;98614.72;4938184;29;20046;-62
2021/08/07 10:24:52;;;;;;;2.95;1.73;;;;;;;17.09;74.61;98601.63;4938503;29;20175;-61
2021/08/07 10:27:47;;;;;;;4.20;1.90;;;;;;;17.08;74.54;98594.69;4923760;29;20055;-62
2021/08/07 10:30:42;;;;;;;5.45;2.30;;;;;;;17.09;74.50;98599.00;4923968;29;20124;-62
2021/08/07 10:33:34;;;;;;;8.07;2.22;;;;;;;17.10;74.17;98585.88;4923934;29;20131;-61
2021/08/07 10:36:19;;;;;;;5.60;2.20;;;;;;;17.11;74.46;98591.97;4937520;29;20109;-62
2021/08/07 10:39:09;;;;;;;5.80;2.42;;;;;;;17.12;74.43;98583.19;4923614;29;20055;-61
2021/08/07 10:42:07;;;;;;;6.72;2.25;;;;;;;17.14;74.15;98589.25;4937935;29;20592;-61
2021/08/07 10:45:04;;;;;;;5.45;2.05;;;;;;;17.17;73.96;98582.13;4924036;29;20138;-62
2021/08/07 10:47:57;;;;;;;4.43;1.92;;;;;;;17.20;74.07;98575.97;4923089;29;20045;-61
2021/08/07 10:50:52;;;;;;;5.43;2.00;;;;;;;17.21;74.21;98575.03;4937850;29;20511;-61
2021/08/07 10:53:48;;;;;;;5.68;2.17;;;;;;;17.24;73.95;98579.31;4923509;29;20134;-63
2021/08/07 10:56:38;;;;;;;3.90;1.95;;;;;;;17.25;73.79;98571.41;4923300;29;20526;-63
2021/08/07 10:59:25;;;;;;;6.75;2.13;;;;;;;17.26;73.92;98586.19;4923589;29;20054;-62
2021/08/07 11:02:19;;;;;;;5.20;2.00;;;;;;;17.26;73.81;98578.34;4917828;29;20111;-63
2021/08/07 11:05:10;;;;;;;4.45;1.80;;;;;;;17.27;73.85;98574.81;4918723;29;20404;-62
2021/08/07 11:08:16;;;;;;;2.85;1.50;;;;;;;17.29;73.83;98596.56;4918447;29;20074;-63
2021/08/07 11:11:27;;;;;;;9.45;2.50;;;;;;;17.33;73.78;98597.31;4917723;29;20509;-64
2021/08/07 11:14:26;;;;;;;5.82;1.92;;;;;;;17.34;73.63;98580.69;4918164;29;20086;-63
2021/08/07 11:17:13;;;;;;;3.88;2.20;;;;;;;17.34;73.15;98571.09;4917209;29;20071;-62
2021/08/07 11:20:08;;;;;;;10.13;2.33;;;;;;;17.34;73.64;98576.31;4917148;29;20050;-61
2021/08/07 11:22:52;;;;;;;4.63;2.08;;;;;;;17.35;73.56;98570.19;4917219;29;20123;-62
2021/08/07 11:25:47;;;;;;;6.18;2.05;;;;;;;17.33;73.41;98568.50;4917052;29;20059;-61
2021/08/07 11:28:33;;;;;;;2.20;1.73;;;;;;;17.33;73.36;98572.00;4917012;29;20185;-61
2021/08/07 11:31:24;;;;;;;7.07;2.05;;;;;;;17.33;73.24;98572.00;4917289;29;20054;-61
2021/08/07 11:34:22;;;;;;;4.05;2.00;;;;;;;17.33;73.06;98560.66;4917619;29;20055;-61
2021/08/07 11:37:17;;;;;;;6.47;2.17;;;;;;;17.33;73.23;98560.66;4917115;29;20042;-61
2021/08/07 11:40:44;;;;;;;7.30;1.90;;;;;;;17.31;73.21;98542.41;4917710;29;20059;-61
2021/08/07 11:43:32;;;;;;;5.07;1.70;;;;;;;17.30;73.17;98539.81;4909298;29;20564;-61
2021/08/07 11:46:17;;;;;;;8.82;2.22;;;;;;;17.31;73.06;98534.53;4917108;29;20412;-61
2021/08/07 11:49:01;;;;;;;6.00;1.42;;;;;;;17.33;73.13;98540.59;4917965;29;20582;-61
2021/08/07 11:51:52;;;;;;;5.00;1.85;;;;;;;17.35;73.28;98535.28;4917876;29;20059;-62
2021/08/07 11:54:42;;;;;;;3.40;1.73;;;;;;;17.36;73.08;98534.38;4916810;29;20439;-61
2021/08/07 11:57:26;;;;;;;6.35;1.98;;;;;;;17.35;73.08;98536.16;4917122;29;20079;-61
2021/08/07 12:00:28;;;;;;;7.90;2.10;;;;;;;17.38;72.97;98544.78;4916973;29;20094;-61
2021/08/07 12:03:20;;;;;;;5.38;2.13;;;;;;;17.35;73.10;98530.91;4933419;29;20514;-63
2021/08/07 12:06:17;;;;;;;4.70;1.90;;;;;;;17.35;72.65;98520.44;4936362;29;20054;-63
2021/08/07 12:09:14;;;;;;;4.25;1.90;;;;;;;17.35;72.73;98530.03;4936215;29;20074;-62
2021/08/07 12:12:02;;;;;;;4.05;1.80;;;;;;;17.35;72.93;98522.19;4936410;29;20442;-63
2021/08/07 12:14:46;;;;;;;5.85;1.80;;;;;;;17.34;72.63;98513.50;4922528;29;20536;-61
2021/08/07 12:17:33;;;;;;;6.25;1.58;;;;;;;17.36;72.48;98516.03;4936144;29;20070;-61
2021/08/07 12:20:23;;;;;;;4.53;1.60;;;;;;;17.37;72.54;98509.03;4936072;29;20168;-61
2021/08/07 12:23:13;;;;;;;5.68;1.67;;;;;;;17.39;72.48;98520.31;4921510;29;20407;-61
2021/08/07 12:26:00;;;;;;;5.72;1.98;;;;;;;17.40;72.49;98512.41;4936365;29;20412;-61
2021/08/07 12:28:44;;;;;;;5.45;1.80;;;;;;;17.43;72.84;98500.97;4936542;29;20050;-61
2021/08/07 12:31:46;;;;;;;4.15;1.50;;;;;;;17.44;72.44;98497.44;4921906;29;20396;-61
2021/08/07 12:34:32;;;;;;;2.47;1.40;;;;;;;17.45;72.61;98493.91;4921737;29;20570;-61
2021/08/07 12:37:22;;;;;;;4.90;1.73;;;;;;;17.46;72.27;98496.44;4936539;29;20131;-61
2021/08/07 12:40:09;;;;;;;3.08;1.30;;;;;;;17.48;72.06;98504.28;4936528;29;20138;-61
2021/08/07 12:42:53;;;;;;;5.32;1.85;;;;;;;17.48;71.93;98502.50;4921934;29;20071;-61
2021/08/07 12:45:38;;;;;;;6.05;2.08;;;;;;;17.49;72.07;98495.50;4935762;29;20067;-63
2021/08/07 12:48:44;;;;;;;;;;;;;;;17.47;71.91;98495.53;4936747;29;20051;-61
2021/08/07 12:51:35;;;;;;;5.00;1.90;;;;;;;17.45;72.03;98497.38;4921538;29;19966;-61
2021/08/07 12:54:28;;;;;;;7.53;1.65;;;;;;;17.45;71.83;98483.44;4921429;29;20127;-62
2021/08/07 12:57:23;;;;;;;4.22;1.30;;;;;;;17.44;71.74;98492.19;4921367;29;20127;-61
2021/08/07 13:00:08;;;;;;;5.72;1.90;;;;;;;17.44;71.91;98484.34;4921882;29;20554;-62
2021/08/07 13:03:06;;;;;;;2.97;1.38;;;;;;;17.43;71.87;98486.13;4936275;29;20118;-61
2021/08/07 13:06:10;;;;;;;6.55;1.73;;;;;;;17.44;71.79;98489.56;4921607;29;20054;-61
2021/08/07 13:09:14;;;;;;;7.03;1.58;;;;;;;17.44;71.55;98487.78;4921294;29;20042;-61
2021/08/07 13:12:13;;;;;;;5.28;1.48;;;;;;;17.44;71.80;98498.28;4939462;29;20091;-61
2021/08/07 13:15:11;;;;;;;3.00;1.65;;;;;;;17.45;71.88;98499.13;4925327;29;20051;-62
2021/08/07 13:17:56;;;;;;;6.38;1.92;;;;;;;17.45;71.88;98491.28;4939514;29;20047;-61
2021/08/07 13:20:44;;;;;;;7.45;2.63;;;;;;;17.44;71.64;98503.50;4939602;29;20573;-61
2021/08/07 13:23:36;;;;;;;4.78;1.88;;;;;;;17.44;71.60;98513.13;4925295;29;20463;-61
2021/08/07 13:26:20;;;;;;;4.72;1.60;;;;;;;17.44;71.67;98507.91;4924910;29;20088;-63
2021/08/07 13:29:20;;;;;;;4.40;1.77;;;;;;;17.43;71.51;98506.19;4939611;29;20042;-61
2021/08/07 13:32:18;;;;;;;3.80;1.70;;;;;;;17.42;71.61;98504.47;4939149;29;20110;-61
2021/08/07 13:35:10;;;;;;;5.10;2.13;;;;;;;17.41;71.64;98503.66;4939083;29;20070;-62